Time;durP1;ratioP1;P1;durP2;ratioP2;P2;SDS_P1;SDS_P2;PMS_P1;PMS_P2;Temp;Humidity;BMP_temperature;BMP_pressure;BME280_temperature;BME280_humidity;BME280_pressure;Samples;Min_cycle;Max_cycle;Signal;HPM_P1;HPM_P2
2023/09/09 00:01:59;;;;;;;14.00;7.57;;;;;;;;;;6161309;23;20001;-92
2023/09/09 00:04:25;;;;;;;11.75;7.50;;;;;;;;;;6135172;23;20238;-93
2023/09/09 00:06:51;;;;;;;20.73;7.32;;;;;;;;;;6135160;23;20005;-91
2023/09/09 00:09:17;;;;;;;14.75;7.93;;;;;;;;;;6161792;23;20320;-91
2023/09/09 00:14:47;;;;;;;11.52;7.55;;;;;;;;;;6161295;23;20015;-92
2023/09/09 00:17:13;;;;;;;14.05;7.32;;;;;;;;;;6161572;23;20009;-91
2023/09/09 00:19:39;;;;;;;9.63;6.65;;;;;;;;;;6135475;23;20100;-90
2023/09/09 00:22:06;;;;;;;10.30;7.25;;;;;;;;;;6161175;23;20005;-91
2023/09/09 00:24:32;;;;;;;10.88;7.75;;;;;;;;;;6161504;23;20010;-91
2023/09/09 00:30:15;;;;;;;10.35;7.97;;;;;;;;;;6161078;23;20012;-92
2023/09/09 00:32:41;;;;;;;11.55;8.05;;;;;;;;;;6135518;23;20026;-91
2023/09/09 00:35:07;;;;;;;12.70;7.70;;;;;;;;;;6161639;23;20005;-92
2023/09/09 00:37:33;;;;;;;13.90;8.38;;;;;;;;;;6134918;23;20002;-91
2023/09/09 00:39:59;;;;;;;10.55;8.30;;;;;;;;;;6135364;23;20005;-93
2023/09/09 00:45:39;;;;;;;12.55;7.47;;;;;;;;;;6161178;23;20308;-90
2023/09/09 00:48:05;;;;;;;12.93;7.93;;;;;;;;;;6135359;23;20005;-90
2023/09/09 00:50:31;;;;;;;15.27;8.07;;;;;;;;;;6135303;23;20207;-89
2023/09/09 00:52:58;;;;;;;17.42;8.38;;;;;;;;;;6160946;23;20005;-90
2023/09/09 00:55:26;;;;;;;19.63;7.85;;;;;;;;;;6161493;23;20025;-89
2023/09/09 01:01:10;;;;;;;13.15;8.05;;;;;;;;;;6163059;23;20025;-88
2023/09/09 01:03:36;;;;;;;11.30;7.57;;;;;;;;;;6163078;23;19997;-88
2023/09/09 01:06:03;;;;;;;15.82;7.40;;;;;;;;;;6163041;23;20357;-92
2023/09/09 01:08:30;;;;;;;12.55;7.72;;;;;;;;;;6137385;23;20009;-93
2023/09/09 01:10:56;;;;;;;16.02;7.57;;;;;;;;;;6163080;23;20305;-92
2023/09/09 01:16:50;;;;;;;12.20;7.30;;;;;;;;;;6163127;23;20076;-93
2023/09/09 01:19:17;;;;;;;15.10;7.47;;;;;;;;;;6136951;23;20005;-93
2023/09/09 01:21:44;;;;;;;16.45;7.63;;;;;;;;;;6162742;23;20044;-93
2023/09/09 01:24:15;;;;;;;12.60;7.53;;;;;;;;;;6163034;23;20006;-94
2023/09/09 01:26:42;;;;;;;11.38;7.60;;;;;;;;;;6162862;23;19998;-94
2023/09/09 01:29:08;;;;;;;11.77;7.28;;;;;;;;;;6163106;23;20001;-94
2023/09/09 01:31:34;;;;;;;10.57;7.05;;;;;;;;;;6162958;23;20043;-95
2023/09/09 01:34:00;;;;;;;13.07;8.07;;;;;;;;;;6136882;23;20001;-94
2023/09/09 01:36:26;;;;;;;13.73;8.25;;;;;;;;;;6137095;23;20033;-93
2023/09/09 01:38:52;;;;;;;14.05;7.53;;;;;;;;;;6137085;23;20357;-93
2023/09/09 01:41:18;;;;;;;14.20;7.43;;;;;;;;;;6137052;23;20002;-94
2023/09/09 01:43:44;;;;;;;14.80;7.65;;;;;;;;;;6162674;23;20383;-93
2023/09/09 01:46:10;;;;;;;14.38;8.23;;;;;;;;;;6162513;23;20004;-93
2023/09/09 01:48:37;;;;;;;13.68;8.18;;;;;;;;;;6162423;23;20006;-94
2023/09/09 01:51:03;;;;;;;14.38;8.07;;;;;;;;;;6136767;23;20072;-91
2023/09/09 01:53:29;;;;;;;18.95;8.65;;;;;;;;;;6162724;23;20439;-91
2023/09/09 01:55:56;;;;;;;15.38;8.73;;;;;;;;;;6162470;23;20092;-93
2023/09/09 01:58:22;;;;;;;11.95;7.45;;;;;;;;;;6162986;23;20009;-92
2023/09/09 02:00:48;;;;;;;14.73;7.57;;;;;;;;;;6136130;23;20009;-92
2023/09/09 02:03:14;;;;;;;12.30;8.00;;;;;;;;;;6136817;23;20005;-91
2023/09/09 02:05:40;;;;;;;16.30;7.93;;;;;;;;;;6162890;23;19998;-92
2023/09/09 02:08:07;;;;;;;13.02;8.05;;;;;;;;;;6136321;23;20085;-91
2023/09/09 02:10:33;;;;;;;13.45;7.63;;;;;;;;;;6136620;23;20005;-92
2023/09/09 02:16:06;;;;;;;14.25;7.65;;;;;;;;;;6162509;23;20044;-92
2023/09/09 02:18:32;;;;;;;11.57;8.05;;;;;;;;;;6162319;23;20080;-92
2023/09/09 02:20:59;;;;;;;13.93;8.55;;;;;;;;;;6162533;23;20080;-92
2023/09/09 02:23:25;;;;;;;10.80;7.88;;;;;;;;;;6162685;23;20002;-93
2023/09/09 02:25:51;;;;;;;16.42;8.80;;;;;;;;;;6136664;23;20017;-92
2023/09/09 02:31:35;;;;;;;14.00;8.95;;;;;;;;;;6162116;23;20394;-93
2023/09/09 02:34:01;;;;;;;13.07;9.05;;;;;;;;;;6136183;23;20013;-92
2023/09/09 02:36:27;;;;;;;11.57;7.97;;;;;;;;;;6162449;23;20064;-92
2023/09/09 02:38:53;;;;;;;14.15;9.65;;;;;;;;;;6162026;23;20028;-92
2023/09/09 02:41:19;;;;;;;15.90;9.77;;;;;;;;;;6162497;23;20002;-94
2023/09/09 02:46:49;;;;;;;22.13;10.43;;;;;;;;;;6162158;23;20044;-93
2023/09/09 02:49:15;;;;;;;13.27;9.85;;;;;;;;;;6161901;23;19993;-94
2023/09/09 02:51:41;;;;;;;18.08;10.65;;;;;;;;;;6136258;23;20084;-94
2023/09/09 02:54:07;;;;;;;12.57;9.25;;;;;;;;;;6136072;23;20009;-94
2023/09/09 03:02:54;;;;;;;17.67;10.27;;;;;;;;;;6161982;23;20020;-94
2023/09/09 03:05:20;;;;;;;18.50;10.55;;;;;;;;;;6162079;23;20021;-93
2023/09/09 03:07:48;;;;;;;15.88;10.63;;;;;;;;;;6136361;23;19997;-93
2023/09/09 03:10:14;;;;;;;15.43;10.68;;;;;;;;;;6161600;23;20260;-92
2023/09/09 03:12:58;;;;;;;17.67;11.25;;;;;;;;;;6136209;23;20269;-95
2023/09/09 03:15:25;;;;;;;19.02;11.32;;;;;;;;;;6161710;23;20264;-94
2023/09/09 03:17:51;;;;;;;16.83;11.43;;;;;;;;;;6162137;23;20075;-94
2023/09/09 03:20:17;;;;;;;18.33;11.40;;;;;;;;;;6160752;23;20002;-91
2023/09/09 03:22:43;;;;;;;22.55;11.07;;;;;;;;;;6135695;23;20005;-92
2023/09/09 03:25:09;;;;;;;15.13;11.05;;;;;;;;;;6161886;23;20002;-92
2023/09/09 03:27:35;;;;;;;17.05;10.18;;;;;;;;;;6136037;23;20009;-92
2023/09/09 03:30:03;;;;;;;19.02;10.95;;;;;;;;;;6135544;23;20013;-92
2023/09/09 03:32:30;;;;;;;18.58;10.43;;;;;;;;;;6161948;23;20009;-91
2023/09/09 03:34:56;;;;;;;13.13;10.40;;;;;;;;;;6161545;23;20008;-90
2023/09/09 03:37:22;;;;;;;15.35;11.27;;;;;;;;;;6161604;23;20040;-90
2023/09/09 03:39:48;;;;;;;15.18;11.20;;;;;;;;;;6161295;23;20419;-90
2023/09/09 03:42:14;;;;;;;16.52;11.15;;;;;;;;;;6161989;23;20045;-89
2023/09/09 03:44:41;;;;;;;19.40;12.73;;;;;;;;;;6135668;23;20140;-93
2023/09/09 03:47:07;;;;;;;18.98;12.02;;;;;;;;;;6161824;23;20001;-92
2023/09/09 03:49:33;;;;;;;17.65;11.32;;;;;;;;;;6161206;23;20009;-93
2023/09/09 03:51:59;;;;;;;15.18;11.50;;;;;;;;;;6135736;23;20016;-91
2023/09/09 03:54:25;;;;;;;15.95;11.63;;;;;;;;;;6135024;23;20013;-91
2023/09/09 03:56:51;;;;;;;14.13;11.32;;;;;;;;;;6161754;23;20300;-91
2023/09/09 03:59:17;;;;;;;21.20;12.23;;;;;;;;;;6161602;23;20006;-94
2023/09/09 04:01:43;;;;;;;17.48;11.45;;;;;;;;;;6135815;23;20005;-92
2023/09/09 04:04:09;;;;;;;21.75;12.93;;;;;;;;;;6135755;23;20001;-92
2023/09/09 04:06:36;;;;;;;16.02;11.90;;;;;;;;;;6135809;23;20033;-91
2023/09/09 04:09:02;;;;;;;27.75;11.77;;;;;;;;;;6135602;23;20020;-91
2023/09/09 04:11:28;;;;;;;20.42;12.75;;;;;;;;;;6135808;23;20005;-92
2023/09/09 04:16:58;;;;;;;21.02;13.10;;;;;;;;;;6161411;23;20028;-92
2023/09/09 04:19:25;;;;;;;20.48;12.63;;;;;;;;;;6161582;23;20002;-92
2023/09/09 04:21:51;;;;;;;21.98;12.95;;;;;;;;;;6161170;23;20021;-95
2023/09/09 04:24:17;;;;;;;21.30;12.52;;;;;;;;;;6161247;23;20487;-93
2023/09/09 04:26:43;;;;;;;21.65;12.65;;;;;;;;;;6135111;23;20364;-93
2023/09/09 04:29:10;;;;;;;23.42;12.73;;;;;;;;;;6161320;23;20357;-93
2023/09/09 04:31:36;;;;;;;18.30;12.13;;;;;;;;;;6135330;23;20431;-92
2023/09/09 04:34:02;;;;;;;19.77;13.00;;;;;;;;;;6161088;23;20360;-92
2023/09/09 04:36:28;;;;;;;17.13;12.73;;;;;;;;;;6161481;23;20101;-92
2023/09/09 04:38:54;;;;;;;24.10;13.63;;;;;;;;;;6135383;23;20033;-91
2023/09/09 04:41:20;;;;;;;24.58;12.95;;;;;;;;;;6135284;23;20005;-92
2023/09/09 04:43:46;;;;;;;27.45;12.93;;;;;;;;;;6135325;23;20010;-91
2023/09/09 04:46:12;;;;;;;19.45;12.32;;;;;;;;;;6161189;23;20008;-92
2023/09/09 04:48:38;;;;;;;17.35;13.60;;;;;;;;;;6135579;23;20002;-93
2023/09/09 04:51:04;;;;;;;18.08;12.95;;;;;;;;;;6160982;23;20012;-92
2023/09/09 05:04:41;;;;;;;20.13;14.35;;;;;;;;;;5095294;27;20374;-89
2023/09/09 05:07:07;;;;;;;16.52;13.55;;;;;;;;;;5094195;28;20024;-91
2023/09/09 05:09:52;;;;;;;26.25;14.05;;;;;;;;;;5093985;28;20424;-90
2023/09/09 05:12:18;;;;;;;21.33;14.00;;;;;;;;;;5094871;28;20042;-91
2023/09/09 05:14:44;;;;;;;24.17;14.77;;;;;;;;;;5094019;28;20028;-90
2023/09/09 05:17:10;;;;;;;24.58;15.00;;;;;;;;;;5093768;28;20031;-92
2023/09/09 05:19:36;;;;;;;20.52;13.93;;;;;;;;;;5093937;28;20032;-91
2023/09/09 05:22:02;;;;;;;22.05;14.48;;;;;;;;;;5094734;28;20024;-90
2023/09/09 05:24:28;;;;;;;20.08;14.60;;;;;;;;;;5094811;28;20027;-91
2023/09/09 05:26:54;;;;;;;20.73;14.30;;;;;;;;;;5093623;28;20394;-90
2023/09/09 05:29:20;;;;;;;20.45;14.30;;;;;;;;;;5093813;28;20028;-91
2023/09/09 05:31:47;;;;;;;16.27;12.73;;;;;;;;;;5094779;28;20025;-91
2023/09/09 05:34:13;;;;;;;16.83;12.82;;;;;;;;;;5093675;28;20046;-90
2023/09/09 05:36:39;;;;;;;17.65;12.80;;;;;;;;;;5093748;28;20028;-89
2023/09/09 05:39:24;;;;;;;24.23;12.73;;;;;;;;;;5093581;28;20032;-90
2023/09/09 05:41:50;;;;;;;19.35;13.13;;;;;;;;;;5093355;28;20055;-90
2023/09/09 05:44:16;;;;;;;18.52;11.68;;;;;;;;;;5093375;28;20029;-90
2023/09/09 05:46:42;;;;;;;13.93;11.40;;;;;;;;;;5093350;28;20020;-90
2023/09/09 05:49:08;;;;;;;21.55;11.07;;;;;;;;;;5094128;28;20062;-89
2023/09/09 05:51:34;;;;;;;14.55;11.02;;;;;;;;;;5093297;28;20017;-89
2023/09/09 05:54:01;;;;;;;15.13;10.85;;;;;;;;;;5093246;28;20025;-93
2023/09/09 05:56:27;;;;;;;18.10;11.95;;;;;;;;;;5093181;28;20021;-90
2023/09/09 05:58:53;;;;;;;16.00;10.43;;;;;;;;;;5093413;28;20032;-90
2023/09/09 06:01:19;;;;;;;16.67;10.63;;;;;;;;;;5093044;28;20024;-91
2023/09/09 06:03:45;;;;;;;11.98;9.75;;;;;;;;;;5088484;28;20041;-90
2023/09/09 06:06:11;;;;;;;15.15;9.93;;;;;;;;;;5080201;28;20029;-90
2023/09/09 06:09:29;;;;;;;13.18;10.10;;;;;;;;;;5071384;28;20475;-90
2023/09/09 06:11:55;;;;;;;12.85;9.20;;;;;;;;;;5059333;28;20040;-91
2023/09/09 06:14:21;;;;;;;13.40;9.45;;;;;;;;;;5059313;28;20040;-90
2023/09/09 06:16:47;;;;;;;17.90;8.80;;;;;;;;;;5060443;28;20021;-90
2023/09/09 06:19:13;;;;;;;13.57;8.85;;;;;;;;;;5059247;28;20025;-89
2023/09/09 06:21:39;;;;;;;18.98;9.70;;;;;;;;;;5059151;28;20033;-90
2023/09/09 06:24:07;;;;;;;14.13;9.07;;;;;;;;;;5059369;28;20112;-89
2023/09/09 06:26:33;;;;;;;13.15;8.63;;;;;;;;;;5059245;28;20472;-90
2023/09/09 06:29:00;;;;;;;13.77;9.32;;;;;;;;;;5059051;28;20025;-90
2023/09/09 06:31:26;;;;;;;12.52;8.40;;;;;;;;;;5074599;28;20016;-90
2023/09/09 06:33:53;;;;;;;13.15;8.90;;;;;;;;;;5079766;28;20032;-91
2023/09/09 06:36:20;;;;;;;11.98;8.13;;;;;;;;;;5079084;28;20028;-90
2023/09/09 06:38:46;;;;;;;10.23;7.97;;;;;;;;;;5079140;28;20047;-91
2023/09/09 06:41:15;;;;;;;13.18;7.93;;;;;;;;;;5066837;28;20037;-90
2023/09/09 06:43:45;;;;;;;11.82;7.22;;;;;;;;;;5059593;28;20032;-90
2023/09/09 06:46:11;;;;;;;12.65;7.72;;;;;;;;;;5059579;28;20028;-90
2023/09/09 06:48:39;;;;;;;10.77;6.90;;;;;;;;;;5059892;28;20032;-89
2023/09/09 06:51:05;;;;;;;9.68;6.65;;;;;;;;;;5078625;28;20042;-88
2023/09/09 06:53:31;;;;;;;11.48;6.32;;;;;;;;;;5078696;28;20332;-90
2023/09/09 06:55:57;;;;;;;9.30;5.95;;;;;;;;;;5079634;28;20021;-89
2023/09/09 06:58:23;;;;;;;9.63;6.07;;;;;;;;;;5080152;28;20028;-91
2023/09/09 07:00:50;;;;;;;12.20;6.45;;;;;;;;;;5068699;28;20020;-90
2023/09/09 07:03:16;;;;;;;14.40;7.85;;;;;;;;;;5078222;28;20056;-90
2023/09/09 07:05:42;;;;;;;22.02;9.40;;;;;;;;;;5059627;28;20021;-92
2023/09/09 07:08:09;;;;;;;14.55;4.78;;;;;;;;;;5065718;28;20053;-90
2023/09/09 07:10:35;;;;;;;6.97;4.72;;;;;;;;;;5079170;28;20425;-89
2023/09/09 07:13:01;;;;;;;13.23;5.13;;;;;;;;;;5078151;28;20036;-89
2023/09/09 07:15:27;;;;;;;10.23;5.00;;;;;;;;;;5078700;28;20108;-90
2023/09/09 07:17:55;;;;;;;7.97;5.00;;;;;;;;;;5077811;28;20556;-91
2023/09/09 07:20:21;;;;;;;7.50;5.00;;;;;;;;;;5078308;28;20154;-89
2023/09/09 07:33:21;;;;;;;13.48;4.90;;;;;;;;;;5088254;27;20427;-91
2023/09/09 07:35:50;;;;;;;7.35;4.32;;;;;;;;;;5055034;28;20033;-92
2023/09/09 07:38:16;;;;;;;8.30;4.32;;;;;;;;;;5054714;28;20021;-91
2023/09/09 07:40:42;;;;;;;10.25;4.78;;;;;;;;;;5054005;28;20036;-93
2023/09/09 07:43:08;;;;;;;9.32;4.35;;;;;;;;;;5033883;28;20108;-93
2023/09/09 07:45:35;;;;;;;11.00;4.47;;;;;;;;;;5038598;28;20025;-95
2023/09/09 07:48:01;;;;;;;7.68;4.40;;;;;;;;;;5053674;28;20079;-94
2023/09/09 07:50:27;;;;;;;7.88;4.38;;;;;;;;;;5053645;28;20044;-95
2023/09/09 07:52:53;;;;;;;13.18;4.43;;;;;;;;;;5054753;28;20029;-94
2023/09/09 07:55:19;;;;;;;14.88;4.65;;;;;;;;;;5055261;28;20017;-94
2023/09/09 07:57:45;;;;;;;9.07;4.18;;;;;;;;;;5054865;28;20057;-94
2023/09/09 08:00:13;;;;;;;11.85;4.53;;;;;;;;;;5053391;28;20432;-93
2023/09/09 08:02:39;;;;;;;9.05;3.88;;;;;;;;;;5054348;28;20029;-92
2023/09/09 08:05:08;;;;;;;14.02;4.57;;;;;;;;;;5052929;28;20445;-80
2023/09/09 08:07:34;;;;;;;13.43;4.43;;;;;;;;;;5052750;28;20028;-81
2023/09/09 08:10:01;;;;;;;9.07;4.20;;;;;;;;;;5053091;28;20029;-82
2023/09/09 08:12:29;;;;;;;8.77;4.47;;;;;;;;;;5053465;28;20029;-81
2023/09/09 08:15:07;;;;;;;7.97;4.20;;;;;;;;;;5052427;28;20159;-82
2023/09/09 08:17:33;;;;;;;10.55;4.20;;;;;;;;;;5053060;28;20045;-81
2023/09/09 08:19:59;;;;;;;9.38;4.38;;;;;;;;;;5051996;28;20025;-81
2023/09/09 08:22:29;;;;;;;10.80;4.03;;;;;;;;;;5052007;28;20029;-81
2023/09/09 08:24:55;;;;;;;17.33;5.90;;;;;;;;;;5033253;28;20080;-82
2023/09/09 08:27:21;;;;;;;11.15;4.50;;;;;;;;;;5032075;28;20048;-82
2023/09/09 08:29:47;;;;;;;17.17;7.85;;;;;;;;;;5033363;28;20407;-81
2023/09/09 08:32:13;;;;;;;8.40;4.97;;;;;;;;;;5031377;28;20057;-81
2023/09/09 08:34:39;;;;;;;8.80;4.70;;;;;;;;;;5018519;28;20025;-82
2023/09/09 08:37:05;;;;;;;10.38;4.00;;;;;;;;;;5019782;28;20029;-81
2023/09/09 08:39:31;;;;;;;8.75;4.20;;;;;;;;;;5029944;28;20037;-81
2023/09/09 08:42:00;;;;;;;11.77;4.55;;;;;;;;;;5020211;28;20029;-80
2023/09/09 08:44:34;;;;;;;9.98;4.78;;;;;;;;;;5019913;28;20037;-81
2023/09/09 08:47:00;;;;;;;7.55;4.10;;;;;;;;;;5019051;28;20184;-81
2023/09/09 08:49:28;;;;;;;11.30;4.15;;;;;;;;;;5019481;28;20017;-81
2023/09/09 08:51:58;;;;;;;9.48;3.80;;;;;;;;;;5018178;28;20030;-81
2023/09/09 08:54:26;;;;;;;8.23;4.28;;;;;;;;;;5019413;28;20030;-81
2023/09/09 08:56:52;;;;;;;8.50;4.05;;;;;;;;;;5019656;28;20025;-83
2023/09/09 08:59:19;;;;;;;7.82;4.07;;;;;;;;;;5019206;28;20026;-81
2023/09/09 09:01:46;;;;;;;11.38;3.40;;;;;;;;;;5018132;28;20335;-81
2023/09/09 09:04:14;;;;;;;7.80;3.80;;;;;;;;;;5019650;28;20069;-81
2023/09/09 09:06:40;;;;;;;5.22;3.97;;;;;;;;;;5018434;28;20134;-81
2023/09/09 09:09:06;;;;;;;8.50;4.10;;;;;;;;;;5019650;28;20018;-80
2023/09/09 09:11:32;;;;;;;8.90;3.95;;;;;;;;;;5019315;28;20105;-79
2023/09/09 09:14:08;;;;;;;8.52;4.55;;;;;;;;;;5019409;28;20026;-80
2023/09/09 09:16:44;;;;;;;8.57;3.97;;;;;;;;;;5011061;28;20037;-80
2023/09/09 09:19:25;;;;;;;15.40;4.13;;;;;;;;;;4999630;28;20038;-80
2023/09/09 09:21:52;;;;;;;9.25;3.72;;;;;;;;;;4999541;28;20076;-80
2023/09/09 09:24:22;;;;;;;7.20;4.50;;;;;;;;;;4998449;28;20113;-80
2023/09/09 09:26:48;;;;;;;8.75;4.10;;;;;;;;;;4999237;28;20080;-79
2023/09/09 09:29:14;;;;;;;10.38;4.15;;;;;;;;;;4999399;28;20022;-79
2023/09/09 09:31:40;;;;;;;7.28;4.35;;;;;;;;;;4999256;28;20460;-79
2023/09/09 09:34:08;;;;;;;6.72;3.92;;;;;;;;;;4998442;28;20436;-79
2023/09/09 09:36:35;;;;;;;11.38;4.32;;;;;;;;;;4998249;28;20046;-79
2023/09/09 09:39:09;;;;;;;7.90;3.83;;;;;;;;;;4999365;28;20030;-80
2023/09/09 09:41:35;;;;;;;6.60;3.40;;;;;;;;;;4998309;28;20364;-80
2023/09/09 09:44:01;;;;;;;7.57;3.53;;;;;;;;;;4998738;28;20101;-80
2023/09/09 09:46:27;;;;;;;7.80;3.92;;;;;;;;;;4997908;28;20122;-80
2023/09/09 09:48:53;;;;;;;9.10;3.67;;;;;;;;;;4999144;28;20030;-80
2023/09/09 09:51:19;;;;;;;7.82;4.18;;;;;;;;;;4999172;28;20030;-80
2023/09/09 09:53:49;;;;;;;9.10;4.82;;;;;;;;;;4999130;28;20105;-80
2023/09/09 09:56:19;;;;;;;7.57;4.43;;;;;;;;;;4998975;28;20090;-80
2023/09/09 09:58:46;;;;;;;6.53;3.58;;;;;;;;;;4999039;28;20030;-80
2023/09/09 10:01:12;;;;;;;7.40;3.88;;;;;;;;;;4998797;28;20066;-80
2023/09/09 10:03:44;;;;;;;6.95;4.05;;;;;;;;;;4998717;28;20041;-79
2023/09/09 10:06:12;;;;;;;6.68;3.88;;;;;;;;;;4998882;28;20029;-79
2023/09/09 10:08:40;;;;;;;6.80;4.63;;;;;;;;;;4997892;28;20030;-79
2023/09/09 10:11:10;;;;;;;7.57;3.90;;;;;;;;;;4997966;28;20035;-79
2023/09/09 10:13:37;;;;;;;7.80;3.90;;;;;;;;;;4998528;28;20023;-77
2023/09/09 10:16:05;;;;;;;6.35;4.07;;;;;;;;;;4998765;28;20314;-77
2023/09/09 10:18:32;;;;;;;11.32;4.15;;;;;;;;;;4997398;28;20031;-77
2023/09/09 10:20:59;;;;;;;10.00;3.90;;;;;;;;;;4998403;28;20037;-77
2023/09/09 10:23:26;;;;;;;8.68;4.55;;;;;;;;;;4998399;28;20030;-77
2023/09/09 10:25:53;;;;;;;8.05;3.88;;;;;;;;;;4998418;28;20054;-79
2023/09/09 10:28:21;;;;;;;10.52;4.05;;;;;;;;;;4998358;28;20026;-80
2023/09/09 10:30:50;;;;;;;9.82;4.50;;;;;;;;;;4998497;28;20106;-80
2023/09/09 10:33:18;;;;;;;6.07;3.63;;;;;;;;;;4997391;28;20064;-80
2023/09/09 10:35:47;;;;;;;13.35;4.80;;;;;;;;;;4998459;28;20029;-79
2023/09/09 10:38:14;;;;;;;9.30;4.57;;;;;;;;;;4998273;28;20102;-80
2023/09/09 10:40:41;;;;;;;8.27;3.75;;;;;;;;;;4998097;28;20066;-80
2023/09/09 10:43:07;;;;;;;10.20;4.60;;;;;;;;;;4997975;28;20309;-80
2023/09/09 10:45:41;;;;;;;10.05;4.30;;;;;;;;;;4998107;28;20053;-80
2023/09/09 10:48:10;;;;;;;9.30;3.65;;;;;;;;;;4997010;28;20023;-80
2023/09/09 10:50:41;;;;;;;9.25;4.18;;;;;;;;;;4997980;28;20364;-80
2023/09/09 10:53:16;;;;;;;11.40;3.85;;;;;;;;;;4997895;28;20023;-79
2023/09/09 10:55:43;;;;;;;7.43;4.25;;;;;;;;;;4997601;28;20041;-80
2023/09/09 10:58:10;;;;;;;9.88;4.43;;;;;;;;;;4997130;28;20066;-80
2023/09/09 11:00:40;;;;;;;6.45;4.63;;;;;;;;;;4997914;28;20046;-80
2023/09/09 11:03:10;;;;;;;6.45;4.03;;;;;;;;;;4997133;28;20038;-80
2023/09/09 11:05:54;;;;;;;5.97;3.70;;;;;;;;;;4996823;28;20023;-79
2023/09/09 11:08:30;;;;;;;8.32;4.13;;;;;;;;;;4996965;28;20216;-80
2023/09/09 11:11:13;;;;;;;6.90;4.03;;;;;;;;;;4997994;28;20108;-80
2023/09/09 11:13:39;;;;;;;9.88;3.95;;;;;;;;;;4997856;28;20057;-80
2023/09/09 11:16:08;;;;;;;9.13;4.35;;;;;;;;;;4997596;28;20026;-80
2023/09/09 11:18:35;;;;;;;8.88;3.85;;;;;;;;;;4997600;28;20027;-80
2023/09/09 11:21:03;;;;;;;6.20;3.92;;;;;;;;;;4997535;28;20114;-80
2023/09/09 11:23:31;;;;;;;7.45;4.10;;;;;;;;;;4997825;28;20033;-80
2023/09/09 11:25:57;;;;;;;7.05;4.00;;;;;;;;;;4997536;28;20034;-80
2023/09/09 11:28:24;;;;;;;7.43;3.70;;;;;;;;;;4997494;28;20026;-79
2023/09/09 11:30:50;;;;;;;7.53;3.95;;;;;;;;;;4997489;28;20080;-79
2023/09/09 11:33:25;;;;;;;7.50;4.25;;;;;;;;;;4996575;28;20046;-79
2023/09/09 11:35:51;;;;;;;6.47;4.22;;;;;;;;;;4997554;28;20018;-79
2023/09/09 11:38:17;;;;;;;9.65;4.00;;;;;;;;;;4996626;28;20313;-79
2023/09/09 11:40:47;;;;;;;7.68;4.20;;;;;;;;;;4997568;28;20023;-79
2023/09/09 11:43:16;;;;;;;9.65;4.20;;;;;;;;;;4997521;28;20033;-79
2023/09/09 11:45:42;;;;;;;6.22;3.72;;;;;;;;;;4997414;28;20018;-79
2023/09/09 11:48:13;;;;;;;6.82;4.30;;;;;;;;;;4997228;28;20027;-79
2023/09/09 11:50:41;;;;;;;10.35;4.00;;;;;;;;;;5005188;28;20018;-79
2023/09/09 11:53:08;;;;;;;5.88;4.13;;;;;;;;;;5002704;28;20479;-79
2023/09/09 11:55:34;;;;;;;7.75;3.78;;;;;;;;;;5038693;28;20408;-79
2023/09/09 11:58:02;;;;;;;8.10;4.20;;;;;;;;;;5016764;28;20037;-79
2023/09/09 12:00:28;;;;;;;7.40;3.95;;;;;;;;;;5016849;28;20065;-79
2023/09/09 12:02:54;;;;;;;7.15;4.00;;;;;;;;;;5016018;28;20038;-79
2023/09/09 12:05:20;;;;;;;9.10;4.30;;;;;;;;;;5017102;28;20029;-79
2023/09/09 12:07:49;;;;;;;8.18;3.83;;;;;;;;;;5017447;28;20018;-79
2023/09/09 12:10:17;;;;;;;5.40;4.18;;;;;;;;;;5019830;28;20169;-79
2023/09/09 12:12:47;;;;;;;6.13;4.05;;;;;;;;;;5020475;28;20041;-79
2023/09/09 12:15:14;;;;;;;7.80;4.22;;;;;;;;;;5019430;28;20136;-79
2023/09/09 12:17:42;;;;;;;7.88;4.00;;;;;;;;;;5020318;28;20088;-79
2023/09/09 12:20:09;;;;;;;7.65;3.92;;;;;;;;;;5020242;28;20030;-80
2023/09/09 12:22:36;;;;;;;10.55;4.10;;;;;;;;;;5019277;28;20045;-77
2023/09/09 12:25:04;;;;;;;6.93;3.80;;;;;;;;;;5020545;28;20021;-76
2023/09/09 12:27:43;;;;;;;6.10;3.33;;;;;;;;;;5020347;28;20021;-77
2023/09/09 12:30:30;;;;;;;5.15;3.50;;;;;;;;;;5019404;28;20064;-77
2023/09/09 12:32:56;;;;;;;7.05;4.97;;;;;;;;;;5020023;28;20042;-77
2023/09/09 12:35:22;;;;;;;7.88;3.53;;;;;;;;;;5019282;28;20041;-77
2023/09/09 12:37:48;;;;;;;8.55;3.83;;;;;;;;;;5020002;28;20049;-77
2023/09/09 12:40:14;;;;;;;7.78;4.00;;;;;;;;;;5020031;28;20025;-77
2023/09/09 12:42:40;;;;;;;9.88;3.97;;;;;;;;;;5019842;28;20034;-79
2023/09/09 12:45:10;;;;;;;10.45;4.75;;;;;;;;;;5019870;28;20029;-77
2023/09/09 12:47:36;;;;;;;4.78;3.92;;;;;;;;;;5020032;28;20018;-77
2023/09/09 12:50:03;;;;;;;5.50;3.55;;;;;;;;;;5018630;28;20030;-77
2023/09/09 12:52:32;;;;;;;9.10;3.63;;;;;;;;;;5019751;28;20026;-77
2023/09/09 12:54:58;;;;;;;5.70;4.18;;;;;;;;;;5019653;28;20412;-77
2023/09/09 12:57:24;;;;;;;4.82;3.67;;;;;;;;;;5019553;28;20034;-77
2023/09/09 12:59:51;;;;;;;6.07;4.03;;;;;;;;;;5018628;28;20026;-78
2023/09/09 13:02:17;;;;;;;5.30;3.33;;;;;;;;;;5019723;28;20034;-77
2023/09/09 13:04:43;;;;;;;5.35;3.65;;;;;;;;;;5019330;28;20025;-77
2023/09/09 13:07:09;;;;;;;8.15;3.45;;;;;;;;;;5019383;28;20117;-77
2023/09/09 13:09:35;;;;;;;8.38;3.95;;;;;;;;;;5019321;28;20403;-77
2023/09/09 13:12:01;;;;;;;5.38;3.83;;;;;;;;;;5018482;28;20080;-77
2023/09/09 13:14:27;;;;;;;6.72;4.03;;;;;;;;;;5019461;28;20026;-77
2023/09/09 13:16:57;;;;;;;5.53;3.55;;;;;;;;;;5019264;28;20029;-77
2023/09/09 13:19:23;;;;;;;7.22;3.80;;;;;;;;;;5019195;28;20063;-77
2023/09/09 13:21:49;;;;;;;7.63;3.80;;;;;;;;;;5019093;28;20025;-77
2023/09/09 13:24:15;;;;;;;7.72;3.63;;;;;;;;;;5018331;28;20030;-77
2023/09/09 13:26:41;;;;;;;5.68;4.78;;;;;;;;;;5017908;28;20022;-77
2023/09/09 13:29:07;;;;;;;7.65;4.00;;;;;;;;;;5019029;28;20084;-77
2023/09/09 13:31:33;;;;;;;6.93;3.72;;;;;;;;;;5018600;28;20068;-77
2023/09/09 13:33:59;;;;;;;8.55;3.55;;;;;;;;;;5019057;28;20033;-77
2023/09/09 13:36:25;;;;;;;6.50;4.18;;;;;;;;;;5019152;28;20120;-81
2023/09/09 13:38:51;;;;;;;8.70;3.25;;;;;;;;;;5017827;28;20034;-77
2023/09/09 13:41:17;;;;;;;5.50;3.30;;;;;;;;;;5018803;28;20022;-77
2023/09/09 13:43:43;;;;;;;6.75;3.70;;;;;;;;;;5018730;28;20032;-77
2023/09/09 13:46:10;;;;;;;5.57;4.00;;;;;;;;;;5017926;28;20030;-77
2023/09/09 13:48:36;;;;;;;6.90;3.42;;;;;;;;;;5018820;28;20046;-76
2023/09/09 13:51:02;;;;;;;6.70;3.53;;;;;;;;;;5017554;28;20408;-77
2023/09/09 13:53:29;;;;;;;7.75;3.83;;;;;;;;;;5018586;28;20343;-77
2023/09/09 13:55:56;;;;;;;10.05;3.70;;;;;;;;;;5017564;28;20029;-77
2023/09/09 13:58:22;;;;;;;7.13;3.38;;;;;;;;;;5017749;28;20125;-77
2023/09/09 14:00:50;;;;;;;6.00;3.72;;;;;;;;;;5018583;28;20030;-77
2023/09/09 14:03:16;;;;;;;7.30;3.40;;;;;;;;;;5018537;28;20037;-77
2023/09/09 14:05:42;;;;;;;6.55;3.30;;;;;;;;;;5018333;28;20053;-77
2023/09/09 14:08:09;;;;;;;9.50;3.38;;;;;;;;;;5018028;28;20033;-77
2023/09/09 14:10:35;;;;;;;9.50;3.50;;;;;;;;;;5018178;28;20316;-77
2023/09/09 14:13:01;;;;;;;7.30;4.07;;;;;;;;;;5018170;28;20033;-77
2023/09/09 14:15:27;;;;;;;6.47;3.50;;;;;;;;;;5018257;28;20412;-77
2023/09/09 14:17:53;;;;;;;5.82;3.25;;;;;;;;;;5017404;28;20119;-77
2023/09/09 14:20:19;;;;;;;4.55;3.60;;;;;;;;;;5018154;28;20026;-77
2023/09/09 14:22:46;;;;;;;4.65;3.72;;;;;;;;;;5017956;28;20037;-77
2023/09/09 14:25:12;;;;;;;10.38;3.28;;;;;;;;;;5017870;28;20022;-77
2023/09/09 14:27:38;;;;;;;6.40;3.90;;;;;;;;;;5017095;28;20077;-77
2023/09/09 14:30:05;;;;;;;6.55;3.65;;;;;;;;;;5017977;28;20034;-77
2023/09/09 14:32:31;;;;;;;7.88;4.40;;;;;;;;;;5017620;28;20081;-77
2023/09/09 14:34:57;;;;;;;7.57;4.32;;;;;;;;;;5016813;28;20068;-77
2023/09/09 14:37:24;;;;;;;6.22;4.25;;;;;;;;;;5017534;28;20029;-77
2023/09/09 14:39:50;;;;;;;8.23;4.00;;;;;;;;;;5016756;28;20029;-77
2023/09/09 14:42:16;;;;;;;8.05;3.58;;;;;;;;;;5007972;28;20037;-77
2023/09/09 14:44:42;;;;;;;7.95;3.70;;;;;;;;;;5017211;28;20088;-77
2023/09/09 14:47:08;;;;;;;5.90;3.60;;;;;;;;;;5016617;28;20041;-76
2023/09/09 14:49:35;;;;;;;5.28;3.47;;;;;;;;;;5016762;28;20066;-79
2023/09/09 14:52:01;;;;;;;5.10;3.30;;;;;;;;;;5017457;28;20022;-77
2023/09/09 14:54:28;;;;;;;6.47;3.50;;;;;;;;;;5017461;28;20021;-77
2023/09/09 14:56:54;;;;;;;7.70;3.60;;;;;;;;;;5017667;28;20319;-78
2023/09/09 14:59:20;;;;;;;5.80;3.80;;;;;;;;;;5017925;28;20025;-92
2023/09/09 15:01:48;;;;;;;7.68;4.28;;;;;;;;;;5018280;28;20117;-92
2023/09/09 15:04:17;;;;;;;5.82;3.67;;;;;;;;;;5018122;28;20045;-92
2023/09/09 15:06:43;;;;;;;7.22;3.78;;;;;;;;;;5016586;28;20022;-91
2023/09/09 15:12:13;;;;;;;4.85;3.58;;;;;;;;;;5025536;28;20036;-92
2023/09/09 15:14:39;;;;;;;10.18;3.90;;;;;;;;;;5017023;28;20297;-91
2023/09/09 15:17:05;;;;;;;7.50;3.78;;;;;;;;;;5018016;28;20026;-91
2023/09/09 15:19:31;;;;;;;4.43;3.80;;;;;;;;;;5017220;28;20067;-89
2023/09/09 15:21:58;;;;;;;16.67;3.97;;;;;;;;;;5016882;28;20026;-88
2023/09/09 15:24:24;;;;;;;4.80;3.50;;;;;;;;;;5017127;28;20363;-88
2023/09/09 15:26:53;;;;;;;4.70;3.35;;;;;;;;;;5017424;28;20026;-90
2023/09/09 15:29:19;;;;;;;13.10;4.10;;;;;;;;;;5018014;28;20018;-79
2023/09/09 15:31:45;;;;;;;10.40;4.15;;;;;;;;;;5016028;28;20050;-79
2023/09/09 15:34:11;;;;;;;6.88;3.97;;;;;;;;;;5016752;28;20026;-79